createdAt,value
2022-12-09T00:05:28.107Z,18.77
2022-12-09T00:11:30.104Z,19.87
2022-12-09T00:17:32.280Z,18.50
2022-12-09T00:23:34.474Z,18.30
2022-12-09T00:29:36.439Z,22.17
2022-12-09T00:35:38.359Z,20.73
2022-12-09T00:41:40.527Z,17.73
2022-12-09T00:47:42.796Z,19.77
2022-12-09T00:53:44.958Z,17.33
2022-12-09T00:59:47.149Z,19.10
2022-12-09T01:05:49.367Z,17.93
2022-12-09T01:11:51.611Z,14.70
2022-12-09T01:17:53.738Z,19.03
2022-12-09T01:23:55.762Z,17.57
2022-12-09T01:29:57.708Z,22.60
2022-12-09T01:35:59.628Z,20.90
2022-12-09T01:42:03.403Z,19.93
2022-12-09T01:48:12.255Z,22.70
2022-12-09T01:54:14.843Z,17.90
2022-12-09T02:00:19.754Z,17.70
2022-12-09T02:06:21.716Z,15.63
2022-12-09T02:13:11.083Z,19.70
2022-12-09T02:19:42.472Z,14.50
2022-12-09T02:26:09.145Z,12.77
2022-12-09T02:32:40.649Z,15.67
2022-12-09T02:38:44.330Z,15.33
2022-12-09T02:44:50.078Z,12.37
2022-12-09T02:50:54.115Z,11.90
2022-12-09T02:57:16.154Z,12.43
2022-12-09T03:03:19.210Z,14.83
2022-12-09T03:09:34.869Z,11.63
2022-12-09T03:15:39.989Z,13.23
2022-12-09T03:21:48.941Z,14.80
2022-12-09T03:28:19.931Z,15.10
2022-12-09T03:34:30.610Z,13.23
2022-12-09T03:40:35.927Z,15.77
2022-12-09T03:46:38.634Z,14.53
2022-12-09T03:53:16.124Z,14.60
2022-12-09T03:59:19.218Z,11.73
2022-12-09T04:05:21.592Z,11.33
2022-12-09T04:11:23.624Z,12.87
2022-12-09T04:17:25.673Z,13.03
2022-12-09T04:23:27.936Z,10.10
2022-12-09T04:29:30.192Z,11.50
2022-12-09T04:35:32.538Z,9.07
2022-12-09T04:41:34.684Z,8.50
2022-12-09T04:47:36.781Z,9.80
2022-12-09T04:53:38.977Z,14.13
2022-12-09T04:59:40.909Z,10.63
2022-12-09T05:05:43.394Z,12.73
2022-12-09T05:11:45.398Z,15.33
2022-12-09T05:17:59.922Z,10.33
2022-12-09T05:24:03.819Z,21.70
2022-12-09T05:30:07.618Z,10.10
2022-12-09T05:36:15.702Z,10.27
2022-12-09T05:42:18.345Z,11.30
2022-12-09T05:48:20.398Z,14.70
2022-12-09T05:54:22.488Z,9.37
2022-12-09T06:00:25.137Z,10.87
2022-12-09T06:06:30.092Z,12.07
2022-12-09T06:12:32.752Z,15.30
2022-12-09T06:18:35.305Z,12.87
2022-12-09T06:24:37.702Z,13.27
2022-12-09T06:30:40.105Z,38.27
2022-12-09T06:36:42.359Z,109.97
2022-12-09T06:42:44.528Z,88.47
2022-12-09T06:48:47.220Z,62.50
2022-12-09T06:54:49.376Z,15.70
2022-12-09T07:00:51.818Z,17.43
2022-12-09T07:06:54.302Z,15.60
2022-12-09T07:12:56.298Z,14.90
2022-12-09T07:18:58.332Z,17.07
2022-12-09T07:25:00.630Z,16.00
2022-12-09T07:31:03.966Z,16.07
2022-12-09T07:37:06.031Z,13.77
2022-12-09T07:43:08.274Z,19.57
2022-12-09T07:49:11.940Z,22.90
2022-12-09T07:55:14.593Z,22.73
2022-12-09T08:01:21.042Z,17.97
2022-12-09T08:07:23.710Z,20.47
2022-12-09T08:13:26.055Z,16.33
2022-12-09T08:19:28.125Z,17.77
2022-12-09T08:25:33.874Z,20.53
2022-12-09T08:31:40.994Z,16.60
2022-12-09T08:37:44.609Z,19.23
2022-12-09T08:43:47.637Z,21.53
2022-12-09T08:50:02.943Z,17.80
2022-12-09T08:56:14.892Z,19.47
2022-12-09T09:02:17.545Z,16.80
2022-12-09T09:08:20.462Z,18.87
2022-12-09T09:14:29.260Z,16.47
2022-12-09T09:20:31.543Z,20.07
2022-12-09T09:26:33.745Z,20.90
2022-12-09T09:32:36.316Z,19.20
2022-12-09T09:38:39.325Z,21.93
2022-12-09T09:44:47.901Z,19.77
2022-12-09T09:51:06.517Z,24.73
2022-12-09T09:58:23.870Z,21.13
2022-12-09T10:05:22.937Z,23.33
2022-12-09T10:12:19.442Z,22.17
2022-12-09T10:18:34.420Z,18.93
2022-12-09T10:24:40.465Z,21.47
2022-12-09T10:30:44.973Z,15.70
2022-12-09T10:36:48.830Z,21.67
2022-12-09T10:43:17.581Z,13.20
2022-12-09T10:49:25.455Z,12.00
2022-12-09T10:55:52.120Z,7.73
2022-12-09T11:01:57.666Z,3.20
2022-12-09T11:08:01.270Z,4.13
2022-12-09T11:14:04.233Z,2.50
2022-12-09T11:20:06.549Z,2.53
2022-12-09T11:26:32.390Z,2.47
2022-12-09T11:32:52.990Z,1.73
2022-12-09T11:39:48.877Z,2.00
2022-12-09T11:45:50.888Z,1.97
2022-12-09T11:52:06.444Z,2.30
2022-12-09T11:58:15.919Z,2.30
2022-12-09T12:04:35.454Z,2.07
2022-12-09T12:10:57.368Z,2.80
2022-12-09T12:17:18.347Z,3.67
2022-12-09T12:23:33.690Z,2.17
2022-12-09T12:30:15.746Z,1.87
2022-12-09T12:36:52.625Z,3.30
2022-12-09T12:50:23.658Z,2.27
2022-12-09T12:56:44.423Z,2.27
2022-12-09T13:03:17.218Z,2.20
2022-12-09T13:09:40.625Z,6.77
2022-12-09T13:15:49.391Z,7.60
2022-12-09T13:21:52.474Z,13.07
2022-12-09T13:28:23.706Z,6.30
2022-12-09T13:34:39.375Z,16.53
2022-12-09T13:40:41.368Z,5.63
2022-12-09T13:46:43.332Z,4.60
2022-12-09T13:52:52.245Z,3.80
2022-12-09T13:59:22.645Z,8.23
2022-12-09T14:05:29.330Z,4.13
2022-12-09T14:11:37.423Z,4.03
2022-12-09T14:17:39.190Z,5.70
2022-12-09T14:24:08.010Z,3.80
2022-12-09T14:30:34.075Z,4.03
2022-12-09T14:36:36.123Z,5.13
2022-12-09T14:43:25.038Z,4.13
2022-12-09T14:49:48.887Z,18.00
2022-12-09T14:55:51.849Z,7.07
2022-12-09T15:02:18.342Z,11.20
2022-12-09T15:08:41.505Z,8.67
2022-12-09T15:14:47.230Z,7.10
2022-12-09T15:20:56.483Z,8.67
2022-12-09T15:27:03.601Z,7.93
2022-12-09T15:33:19.736Z,8.07
2022-12-09T15:39:36.817Z,6.73
2022-12-09T15:45:43.243Z,6.80
2022-12-09T15:51:46.873Z,6.00
2022-12-09T15:57:52.914Z,8.30
2022-12-09T16:03:57.640Z,5.70
2022-12-09T16:10:17.515Z,6.40
2022-12-09T16:16:50.556Z,5.97
2022-12-09T16:22:59.088Z,7.33
2022-12-09T16:29:05.942Z,8.50
2022-12-09T16:35:10.758Z,6.43
2022-12-09T16:41:12.795Z,6.00
2022-12-09T16:47:26.576Z,7.20
2022-12-09T16:53:41.006Z,7.23
2022-12-09T16:59:43.744Z,6.10
2022-12-09T17:05:47.887Z,10.23
2022-12-09T17:11:50.107Z,6.33
2022-12-09T17:17:52.013Z,8.70
2022-12-09T17:23:53.989Z,6.87
2022-12-09T17:29:58.867Z,7.37
2022-12-09T17:36:00.743Z,7.23
2022-12-09T17:42:03.497Z,7.30
2022-12-09T17:48:08.647Z,16.30
2022-12-09T17:54:10.638Z,10.00
2022-12-09T18:00:21.752Z,8.20
2022-12-09T18:06:28.445Z,7.73
2022-12-09T18:12:36.404Z,10.47
2022-12-09T18:18:42.597Z,7.57
2022-12-09T18:24:44.472Z,22.67
2022-12-09T18:30:46.439Z,9.00
2022-12-09T18:36:48.466Z,9.97
2022-12-09T18:42:51.737Z,39.43
2022-12-09T18:49:03.077Z,80.90
2022-12-09T18:55:08.482Z,49.93
2022-12-09T19:01:22.204Z,57.17
2022-12-09T19:07:27.773Z,15.40
2022-12-09T19:13:33.955Z,24.63
2022-12-09T19:19:36.027Z,21.00
2022-12-09T19:25:41.607Z,18.43
2022-12-09T19:31:50.326Z,30.50
2022-12-09T19:37:56.640Z,14.70
2022-12-09T19:44:04.000Z,14.03
2022-12-09T19:50:10.109Z,13.00
2022-12-09T19:56:15.862Z,14.37
2022-12-09T20:02:17.966Z,14.53
2022-12-09T20:08:20.494Z,13.63
2022-12-09T20:14:22.525Z,16.80
2022-12-09T20:20:26.975Z,16.10
2022-12-09T20:26:33.977Z,13.20
2022-12-09T20:32:35.860Z,14.10
2022-12-09T20:38:38.601Z,16.27
2022-12-09T20:44:40.474Z,24.77
2022-12-09T20:50:42.382Z,14.47
2022-12-09T20:56:46.207Z,15.40
2022-12-09T21:02:48.084Z,26.27
2022-12-09T21:08:51.203Z,19.77
2022-12-09T21:14:56.440Z,21.50
2022-12-09T21:20:58.347Z,31.33
2022-12-09T21:27:01.241Z,34.30
2022-12-09T21:33:03.132Z,37.97
2022-12-09T21:39:06.797Z,26.03
2022-12-09T21:51:26.611Z,23.73
2022-12-09T21:57:28.500Z,19.97
2022-12-09T22:03:30.371Z,22.33
2022-12-09T22:09:32.388Z,23.10
2022-12-09T22:15:35.175Z,24.90
2022-12-09T22:21:37.259Z,24.83
2022-12-09T22:27:43.185Z,20.30
2022-12-09T22:33:45.377Z,28.57
2022-12-09T22:39:47.384Z,30.00
2022-12-09T22:45:49.339Z,37.63
2022-12-09T22:51:54.143Z,27.90
2022-12-09T22:57:59.630Z,35.70
2022-12-09T23:04:02.328Z,29.63
2022-12-09T23:10:04.857Z,28.63
2022-12-09T23:16:09.159Z,29.03
2022-12-09T23:22:12.340Z,33.20
2022-12-09T23:28:14.205Z,29.90
2022-12-09T23:34:16.564Z,36.30
2022-12-09T23:40:21.531Z,38.37
2022-12-09T23:46:26.306Z,34.97
2022-12-09T23:52:28.242Z,32.77
2022-12-09T23:58:30.103Z,36.17
